Terminal Aerodrome Forecast
Issued by NWS Grand Forks, ND

Home | Current Version | Previous Version | Text Only | Print | Product List | Glossary On
Versions: 1 2 3 4 5 6 7 8 9 10 11 12 13
265
FTUS43 KFGF 280520
TAFFAR
TAF
KFAR 280520Z 2806/2906 14015KT P6SM OVC080
      TEMPO 2806/2809 4SM -TSRA OVC040CB
     FM280900 16010KT P6SM OVC040
      TEMPO 2809/2812 -SHRA OVC025
     FM281500 28008KT P6SM OVC020
     FM281700 30012KT P6SM BKN045=

USA.gov is the U.S. government's official web portal to all federal, state and local government web resources and services.